createdAt,value
2019-01-18T00:02:04.271Z,0.47
2019-01-18T00:04:35.515Z,0.47
2019-01-18T00:07:06.622Z,0.60
2019-01-18T00:09:38.845Z,0.60
2019-01-18T00:12:09.889Z,0.50
2019-01-18T00:14:40.951Z,1.00
2019-01-18T00:17:12.066Z,0.50
2019-01-18T00:19:43.394Z,0.60
2019-01-18T00:22:14.473Z,0.65
2019-01-18T00:24:45.695Z,0.65
2019-01-18T00:27:16.750Z,1.43
2019-01-18T00:29:48.068Z,0.60
2019-01-18T00:32:19.037Z,0.70
2019-01-18T00:34:50.040Z,0.60
2019-01-18T00:37:21.025Z,0.60
2019-01-18T00:39:52.061Z,0.57
2019-01-18T00:42:24.252Z,0.43
2019-01-18T00:44:55.248Z,0.77
2019-01-18T00:47:26.497Z,0.87
2019-01-18T00:49:57.499Z,0.50
2019-01-18T00:52:28.554Z,0.72
2019-01-18T00:54:59.558Z,0.77
2019-01-18T00:57:30.677Z,0.77
2019-01-18T01:00:01.681Z,0.50
2019-01-18T01:02:33.064Z,0.47
2019-01-18T01:05:04.421Z,0.77
2019-01-18T01:07:35.554Z,0.40
2019-01-18T01:10:08.163Z,1.17
2019-01-18T01:12:39.384Z,0.60
2019-01-18T01:15:14.498Z,1.10
2019-01-18T01:17:45.984Z,0.68
2019-01-18T01:20:20.707Z,0.50
2019-01-18T01:22:53.077Z,0.93
2019-01-18T01:25:24.225Z,0.57
2019-01-18T01:27:55.202Z,1.50
2019-01-18T01:30:27.243Z,0.87
2019-01-18T01:32:58.524Z,0.57
2019-01-18T01:35:29.696Z,0.40
2019-01-18T01:38:00.755Z,0.70
2019-01-18T01:40:31.813Z,0.40
2019-01-18T01:43:02.863Z,0.53
2019-01-18T01:45:34.261Z,0.97
2019-01-18T01:48:05.422Z,0.60
2019-01-18T01:50:36.454Z,0.50
2019-01-18T01:53:07.497Z,0.78
2019-01-18T01:55:39.558Z,0.90
2019-01-18T01:58:10.711Z,1.10
2019-01-18T02:00:41.895Z,0.85
2019-01-18T02:03:13.195Z,0.60
2019-01-18T02:05:44.196Z,0.47
2019-01-18T02:08:15.162Z,1.97
2019-01-18T02:10:46.390Z,0.68
2019-01-18T02:13:17.944Z,0.40
2019-01-18T02:15:49.413Z,0.78
2019-01-18T02:18:20.526Z,0.53
2019-01-18T02:20:52.157Z,0.98
2019-01-18T02:23:23.524Z,0.63
2019-01-18T02:25:54.679Z,0.72
2019-01-18T02:28:26.211Z,0.40
2019-01-18T02:30:58.110Z,0.80
2019-01-18T02:33:29.605Z,0.40
2019-01-18T02:36:00.929Z,1.27
2019-01-18T02:38:31.983Z,0.60
2019-01-18T02:41:02.983Z,0.50
2019-01-18T02:43:33.955Z,0.73
2019-01-18T02:46:05.293Z,0.70
2019-01-18T02:48:36.543Z,0.60
2019-01-18T02:51:07.886Z,0.90
2019-01-18T02:53:39.662Z,0.80
2019-01-18T02:56:10.657Z,0.78
2019-01-18T02:58:41.633Z,0.40
2019-01-18T03:01:12.890Z,0.45
2019-01-18T03:03:43.942Z,0.55
2019-01-18T03:06:15.299Z,0.87
2019-01-18T03:08:46.423Z,0.20
2019-01-18T03:11:17.416Z,0.57
2019-01-18T03:13:48.544Z,0.20
2019-01-18T03:16:19.977Z,0.70
2019-01-18T03:18:51.412Z,0.50
2019-01-18T03:21:22.490Z,0.50
2019-01-18T03:23:54.744Z,0.23
2019-01-18T03:26:25.691Z,1.57
2019-01-18T03:28:57.078Z,0.30
2019-01-18T03:31:28.059Z,0.50
2019-01-18T03:33:59.372Z,0.70
2019-01-18T03:36:30.729Z,0.73
2019-01-18T03:39:01.689Z,0.42
2019-01-18T03:41:33.023Z,0.40
2019-01-18T03:44:04.122Z,1.13
2019-01-18T03:46:35.337Z,0.70
2019-01-18T03:49:07.805Z,0.43
2019-01-18T03:51:39.763Z,0.50
2019-01-18T03:54:11.165Z,1.10
2019-01-18T03:56:42.218Z,0.43
2019-01-18T03:59:13.675Z,0.30
2019-01-18T04:01:44.953Z,0.42
2019-01-18T04:04:16.536Z,0.50
2019-01-18T04:06:47.598Z,0.80
2019-01-18T04:09:18.832Z,0.80
2019-01-18T04:11:50.057Z,0.40
2019-01-18T04:14:21.009Z,0.60
2019-01-18T04:16:53.015Z,0.37
2019-01-18T04:19:25.876Z,0.60
2019-01-18T04:21:56.927Z,1.15
2019-01-18T04:24:27.898Z,0.23
2019-01-18T04:26:58.891Z,0.43
2019-01-18T04:29:30.267Z,0.60
2019-01-18T04:32:01.938Z,0.57
2019-01-18T04:34:33.269Z,0.40
2019-01-18T04:37:05.558Z,0.60
2019-01-18T04:39:37.175Z,0.60
2019-01-18T04:42:08.240Z,0.70
2019-01-18T04:44:39.657Z,0.78
2019-01-18T04:47:10.852Z,0.62
2019-01-18T04:49:42.396Z,0.50
2019-01-18T04:52:13.455Z,0.70
2019-01-18T04:54:44.724Z,0.70
2019-01-18T04:57:16.237Z,0.50
2019-01-18T04:59:47.792Z,0.30
2019-01-18T05:02:18.779Z,0.77
2019-01-18T05:04:49.770Z,0.60
2019-01-18T05:07:20.751Z,0.60
2019-01-18T05:09:51.737Z,0.60
2019-01-18T05:12:23.130Z,0.60
2019-01-18T05:14:55.586Z,0.80
2019-01-18T05:17:26.813Z,0.60
2019-01-18T05:19:59.400Z,0.50
2019-01-18T05:22:30.750Z,0.84
2019-01-18T05:25:01.713Z,0.70
2019-01-18T05:27:32.929Z,0.30
2019-01-18T05:30:04.933Z,0.57
2019-01-18T05:32:36.476Z,0.50
2019-01-18T05:35:09.214Z,0.77
2019-01-18T05:37:40.274Z,0.75
2019-01-18T05:40:14.292Z,0.45
2019-01-18T05:42:45.274Z,0.70
2019-01-18T05:45:18.476Z,0.60
2019-01-18T05:47:49.842Z,0.97
2019-01-18T05:50:31.079Z,0.30
2019-01-18T05:53:05.934Z,0.70
2019-01-18T05:55:37.311Z,1.15
2019-01-18T05:58:08.681Z,0.55
2019-01-18T06:00:59.070Z,0.43
2019-01-18T06:03:31.645Z,0.73
2019-01-18T06:06:03.006Z,0.57
2019-01-18T06:08:34.044Z,0.27
2019-01-18T06:11:05.645Z,0.35
2019-01-18T06:13:37.548Z,0.50
2019-01-18T06:16:08.509Z,0.40
2019-01-18T06:18:40.135Z,0.98
2019-01-18T06:21:11.478Z,0.72
2019-01-18T06:23:42.626Z,0.43
2019-01-18T06:26:13.988Z,0.80
2019-01-18T06:28:45.314Z,0.73
2019-01-18T06:31:17.321Z,0.78
2019-01-18T06:33:48.289Z,0.70
2019-01-18T06:36:19.323Z,1.00
2019-01-18T06:38:50.521Z,0.70
2019-01-18T06:41:43.635Z,0.80
2019-01-18T06:44:14.931Z,0.50
2019-01-18T06:46:47.517Z,0.60
2019-01-18T06:49:19.746Z,0.90
2019-01-18T06:51:50.862Z,0.40
2019-01-18T06:54:21.845Z,0.33
2019-01-18T06:56:52.797Z,0.72
2019-01-18T06:59:23.844Z,0.60
2019-01-18T07:01:56.001Z,0.76
2019-01-18T07:04:27.557Z,0.83
2019-01-18T07:06:58.775Z,0.40
2019-01-18T07:09:30.260Z,0.57
2019-01-18T07:12:01.473Z,0.68
2019-01-18T07:14:32.460Z,1.00
2019-01-18T07:17:03.876Z,1.07
2019-01-18T07:19:34.947Z,2.25
2019-01-18T07:22:06.116Z,3.63
2019-01-18T07:24:37.390Z,1.80
2019-01-18T07:27:09.084Z,1.22
2019-01-18T07:29:40.067Z,1.10
2019-01-18T07:32:11.169Z,0.65
2019-01-18T07:34:42.476Z,0.70
2019-01-18T07:37:14.143Z,1.00
2019-01-18T07:39:45.444Z,1.15
2019-01-18T07:42:16.721Z,0.60
2019-01-18T07:44:47.818Z,0.80
2019-01-18T07:47:18.923Z,1.15
2019-01-18T07:49:50.228Z,1.60
2019-01-18T07:52:21.542Z,0.40
2019-01-18T07:54:52.599Z,0.97
2019-01-18T07:57:23.564Z,1.07
2019-01-18T07:59:55.812Z,0.83
2019-01-18T08:02:26.776Z,0.80
2019-01-18T08:04:57.762Z,0.80
2019-01-18T08:07:29.504Z,0.80
2019-01-18T08:10:00.733Z,0.60
2019-01-18T08:12:31.740Z,1.40
2019-01-18T08:15:03.060Z,1.02
2019-01-18T08:17:34.094Z,0.93
2019-01-18T08:20:08.053Z,0.82
2019-01-18T08:22:39.397Z,0.77
2019-01-18T08:25:12.421Z,0.98
2019-01-18T08:27:43.837Z,0.60
2019-01-18T08:30:18.611Z,1.13
2019-01-18T08:32:50.078Z,0.97
2019-01-18T08:35:22.626Z,0.77
2019-01-18T08:37:53.780Z,1.10
2019-01-18T08:40:46.955Z,1.17
2019-01-18T08:43:20.223Z,0.57
2019-01-18T08:46:01.181Z,0.80
2019-01-18T08:48:32.221Z,0.70
2019-01-18T08:51:03.935Z,0.70
2019-01-18T08:53:35.108Z,1.35
2019-01-18T08:56:08.187Z,0.73
2019-01-18T08:58:40.273Z,0.72
2019-01-18T09:01:11.373Z,0.60
2019-01-18T09:03:42.343Z,0.80
2019-01-18T09:06:13.428Z,0.95
2019-01-18T09:08:44.674Z,0.90
2019-01-18T09:11:16.256Z,0.50
2019-01-18T09:13:47.334Z,0.63
2019-01-18T09:16:18.473Z,0.87
2019-01-18T09:18:50.101Z,1.05
2019-01-18T09:21:21.387Z,1.20
2019-01-18T09:23:52.724Z,1.00
2019-01-18T09:26:23.688Z,0.73
2019-01-18T09:28:55.971Z,1.20
2019-01-18T09:31:27.351Z,1.33
2019-01-18T09:33:58.678Z,0.90
2019-01-18T09:36:29.958Z,0.80
2019-01-18T09:39:01.019Z,1.40
2019-01-18T09:41:33.176Z,0.90
2019-01-18T09:44:04.725Z,1.40
2019-01-18T09:46:35.769Z,1.37
2019-01-18T09:49:06.909Z,0.80
2019-01-18T09:51:37.879Z,1.20
2019-01-18T09:54:09.260Z,1.45
2019-01-18T09:56:40.625Z,0.70
2019-01-18T09:59:12.282Z,1.00
2019-01-18T10:01:49.117Z,0.62
2019-01-18T10:04:15.941Z,1.77
2019-01-18T10:06:46.964Z,1.50
2019-01-18T10:09:18.186Z,0.50
2019-01-18T10:11:49.433Z,1.10
2019-01-18T10:14:21.185Z,1.00
2019-01-18T10:16:52.418Z,1.30
2019-01-18T10:19:23.479Z,1.20
2019-01-18T10:21:54.528Z,2.22
2019-01-18T10:24:26.676Z,1.05
2019-01-18T10:26:57.903Z,1.40
2019-01-18T10:29:28.873Z,0.60
2019-01-18T10:31:59.939Z,0.90
2019-01-18T10:34:30.999Z,1.65
2019-01-18T10:37:02.119Z,2.65
2019-01-18T10:39:33.170Z,1.65
2019-01-18T10:42:04.917Z,1.05
2019-01-18T10:44:35.894Z,0.97
2019-01-18T10:47:07.495Z,1.20
2019-01-18T10:49:38.717Z,0.77
2019-01-18T10:52:09.682Z,0.98
2019-01-18T10:54:40.852Z,0.77
2019-01-18T10:57:11.888Z,0.95
2019-01-18T10:59:42.938Z,0.93
2019-01-18T11:02:14.236Z,0.68
2019-01-18T11:04:45.611Z,0.75
2019-01-18T11:07:16.683Z,0.70
2019-01-18T11:09:47.893Z,0.40
2019-01-18T11:12:19.095Z,1.87
2019-01-18T11:14:50.369Z,0.70
2019-01-18T11:17:21.494Z,0.60
2019-01-18T11:19:52.477Z,0.72
2019-01-18T11:22:23.445Z,0.87
2019-01-18T11:24:54.788Z,1.02
2019-01-18T11:27:26.257Z,0.42
2019-01-18T11:29:57.535Z,1.20
2019-01-18T11:32:28.878Z,0.77
2019-01-18T11:35:00.101Z,0.67
2019-01-18T11:37:31.127Z,0.68
2019-01-18T11:40:02.527Z,1.40
2019-01-18T11:42:34.193Z,1.17
2019-01-18T11:45:06.938Z,0.90
2019-01-18T11:47:39.368Z,1.10
2019-01-18T11:50:15.037Z,1.10
2019-01-18T11:52:47.332Z,0.90
2019-01-18T11:55:18.941Z,1.32
2019-01-18T11:57:50.233Z,1.27
2019-01-18T12:00:24.262Z,0.57
2019-01-18T12:02:56.497Z,0.80
2019-01-18T12:05:27.731Z,0.77
2019-01-18T12:07:58.843Z,1.00
2019-01-18T12:10:32.105Z,1.20
2019-01-18T12:13:04.285Z,0.85
2019-01-18T12:15:35.655Z,1.10
2019-01-18T12:18:08.059Z,0.80
2019-01-18T12:20:39.459Z,1.07
2019-01-18T12:23:10.835Z,0.55
2019-01-18T12:25:42.019Z,1.32
2019-01-18T12:28:13.501Z,1.25
2019-01-18T12:30:44.908Z,0.60
2019-01-18T12:33:16.320Z,1.40
2019-01-18T12:35:47.579Z,1.27
2019-01-18T12:38:18.618Z,1.03
2019-01-18T12:40:49.787Z,0.90
2019-01-18T12:43:20.756Z,1.20
2019-01-18T12:45:52.026Z,0.80
2019-01-18T12:48:23.083Z,1.13
2019-01-18T12:50:54.519Z,0.60
2019-01-18T12:53:27.109Z,0.96
2019-01-18T12:55:58.331Z,1.43
2019-01-18T12:58:30.443Z,1.20
2019-01-18T13:01:01.555Z,1.40
2019-01-18T13:03:33.009Z,1.07
2019-01-18T13:06:04.474Z,0.80
2019-01-18T13:08:35.991Z,1.27
2019-01-18T13:11:06.991Z,1.00
2019-01-18T13:13:38.583Z,0.75
2019-01-18T13:16:33.711Z,0.50
2019-01-18T13:19:12.796Z,0.90
2019-01-18T13:21:44.194Z,0.60
2019-01-18T13:24:15.399Z,0.65
2019-01-18T13:26:46.907Z,0.63
2019-01-18T13:29:18.353Z,0.93
2019-01-18T13:31:49.785Z,0.57
2019-01-18T13:34:21.054Z,0.60
2019-01-18T13:36:52.730Z,0.60
2019-01-18T13:39:23.893Z,0.45
2019-01-18T13:41:55.262Z,0.40
2019-01-18T13:44:26.768Z,0.62
2019-01-18T13:46:58.256Z,0.28
2019-01-18T13:49:29.401Z,0.57
2019-01-18T13:52:00.892Z,0.50
2019-01-18T13:54:31.946Z,0.50
2019-01-18T13:57:03.269Z,0.50
2019-01-18T13:59:34.244Z,0.50
2019-01-18T14:02:06.011Z,0.68
2019-01-18T14:04:37.295Z,0.60
2019-01-18T14:07:08.662Z,0.60
2019-01-18T14:09:40.047Z,0.50
2019-01-18T14:12:11.307Z,0.42
2019-01-18T14:14:42.811Z,0.70
2019-01-18T14:17:13.889Z,0.70
2019-01-18T14:19:45.424Z,0.88
2019-01-18T14:22:16.486Z,0.87
2019-01-18T14:24:47.787Z,0.60
2019-01-18T14:27:19.667Z,0.63
2019-01-18T14:29:50.837Z,0.70
2019-01-18T14:32:22.096Z,0.65
2019-01-18T14:34:53.627Z,0.87
2019-01-18T14:37:24.687Z,0.70
2019-01-18T14:39:57.219Z,1.23
2019-01-18T14:42:28.254Z,0.87
2019-01-18T14:44:59.281Z,0.90
2019-01-18T14:47:30.436Z,0.73
2019-01-18T14:50:01.395Z,0.85
2019-01-18T14:52:32.606Z,0.70
2019-01-18T14:55:03.889Z,1.07
2019-01-18T14:57:35.251Z,0.80
2019-01-18T15:00:11.728Z,1.92
2019-01-18T15:02:43.154Z,1.82
2019-01-18T15:05:14.715Z,1.60
2019-01-18T15:07:46.055Z,1.50
2019-01-18T15:10:19.800Z,1.57
2019-01-18T15:12:54.358Z,1.73
2019-01-18T15:15:25.837Z,1.60
2019-01-18T15:17:58.156Z,0.80
2019-01-18T15:20:31.397Z,2.13
2019-01-18T15:23:02.758Z,2.27
2019-01-18T15:25:34.054Z,0.93
2019-01-18T15:28:05.393Z,1.50
2019-01-18T15:30:36.757Z,2.10
2019-01-18T15:33:09.344Z,3.83
2019-01-18T15:35:41.439Z,2.10
2019-01-18T15:38:13.299Z,2.85
2019-01-18T15:40:47.821Z,3.57
2019-01-18T15:43:22.746Z,3.00
2019-01-18T15:45:54.036Z,2.62
2019-01-18T15:48:25.379Z,1.87
2019-01-18T15:50:56.803Z,2.15
2019-01-18T15:53:28.116Z,1.65
2019-01-18T15:55:59.106Z,2.02
2019-01-18T15:58:30.197Z,1.53
2019-01-18T16:01:01.705Z,1.57
2019-01-18T16:03:32.883Z,1.40
2019-01-18T16:06:04.667Z,1.90
2019-01-18T16:08:35.742Z,1.40
2019-01-18T16:11:06.866Z,1.70
2019-01-18T16:13:38.527Z,1.00
2019-01-18T16:16:31.004Z,1.30
2019-01-18T16:19:02.335Z,0.97
2019-01-18T16:21:33.304Z,1.10
2019-01-18T16:24:05.054Z,1.45
2019-01-18T16:26:36.459Z,1.45
2019-01-18T16:29:08.064Z,2.00
2019-01-18T16:31:39.396Z,2.20
2019-01-18T16:34:10.683Z,1.90
2019-01-18T16:36:41.964Z,1.53
2019-01-18T16:39:13.004Z,1.20
2019-01-18T16:41:44.121Z,0.93
2019-01-18T16:44:15.169Z,0.90
2019-01-18T16:46:46.454Z,1.47
2019-01-18T16:49:17.492Z,0.97
2019-01-18T16:51:48.698Z,0.80
2019-01-18T16:54:20.276Z,1.17
2019-01-18T16:56:51.237Z,1.12
2019-01-18T16:59:22.611Z,1.43
2019-01-18T17:01:53.901Z,1.77
2019-01-18T17:04:25.191Z,1.67
2019-01-18T17:06:56.294Z,1.27
2019-01-18T17:09:27.859Z,1.30
2019-01-18T17:11:59.070Z,1.42
2019-01-18T17:14:30.635Z,1.53
2019-01-18T17:17:01.610Z,1.20
2019-01-18T17:19:33.599Z,1.57
2019-01-18T17:22:04.755Z,2.27
2019-01-18T17:24:35.810Z,2.30
2019-01-18T17:27:07.091Z,3.20
2019-01-18T17:29:38.374Z,2.72
2019-01-18T17:32:09.336Z,2.10
2019-01-18T17:34:41.650Z,5.78
2019-01-18T17:37:20.705Z,2.53
2019-01-18T17:40:27.993Z,1.47
2019-01-18T17:43:32.151Z,0.90
2019-01-18T17:46:48.146Z,0.72
2019-01-18T17:50:05.484Z,1.50
2019-01-18T17:53:34.515Z,1.07
2019-01-18T17:56:53.681Z,1.00
2019-01-18T18:00:20.289Z,1.47
2019-01-18T18:03:59.959Z,0.80
2019-01-18T18:07:06.362Z,0.83
2019-01-18T18:10:16.922Z,1.30
2019-01-18T18:14:04.860Z,1.10
2019-01-18T18:17:29.044Z,1.77
2019-01-18T18:21:17.856Z,1.12
2019-01-18T18:24:55.019Z,1.83
2019-01-18T18:28:08.817Z,1.50
2019-01-18T18:31:36.106Z,1.00
2019-01-18T18:35:21.874Z,1.23
2019-01-18T18:38:47.801Z,1.40
2019-01-18T18:42:12.368Z,1.42
2019-01-18T18:45:56.097Z,2.37
2019-01-18T18:49:26.500Z,1.02
2019-01-18T18:53:02.936Z,1.47
2019-01-18T18:56:24.116Z,1.27
2019-01-18T18:59:52.626Z,1.70
2019-01-18T19:03:13.187Z,1.30
2019-01-18T19:06:56.436Z,1.40
2019-01-18T19:09:56.028Z,1.50
2019-01-18T19:13:39.932Z,1.65
2019-01-18T19:17:11.301Z,2.07
2019-01-18T19:20:23.518Z,2.40
2019-01-18T19:23:46.677Z,1.77
2019-01-18T19:26:37.473Z,1.70
2019-01-18T19:30:00.405Z,1.90
2019-01-18T19:33:03.791Z,1.47
2019-01-18T19:36:12.818Z,1.47
2019-01-18T19:39:37.325Z,1.50
2019-01-18T19:42:46.443Z,2.70
2019-01-18T19:46:08.974Z,1.53
2019-01-18T19:49:31.547Z,1.60
2019-01-18T19:52:32.283Z,1.70
2019-01-18T19:56:06.315Z,1.45
2019-01-18T19:59:37.426Z,1.73
2019-01-18T20:02:58.220Z,1.73
2019-01-18T20:06:53.984Z,1.50
2019-01-18T20:09:58.967Z,1.40
2019-01-18T20:13:27.427Z,2.13
2019-01-18T20:16:50.732Z,1.87
2019-01-18T20:20:03.947Z,1.65
2019-01-18T20:23:03.092Z,1.53
2019-01-18T20:26:25.227Z,2.12
2019-01-18T20:29:29.239Z,2.62
2019-01-18T20:33:01.372Z,2.30
2019-01-18T20:36:00.760Z,1.80
2019-01-18T20:39:00.934Z,1.80
2019-01-18T20:42:27.593Z,2.33
2019-01-18T20:45:53.929Z,2.73
2019-01-18T20:48:50.205Z,1.52
2019-01-18T20:52:08.179Z,1.83
2019-01-18T20:55:29.630Z,1.83
2019-01-18T20:58:49.571Z,1.47
2019-01-18T21:02:24.413Z,2.07
2019-01-18T21:05:31.439Z,1.80
2019-01-18T21:08:59.495Z,1.57
2019-01-18T21:12:17.046Z,1.37
2019-01-18T21:15:41.340Z,0.93
2019-01-18T21:18:41.998Z,1.37
2019-01-18T21:22:01.564Z,1.50
2019-01-18T21:25:21.741Z,4.77
2019-01-18T21:28:43.746Z,1.97
2019-01-18T21:32:20.374Z,2.37
2019-01-18T21:35:45.363Z,1.33
2019-01-18T21:39:22.561Z,2.23
2019-01-18T21:42:26.574Z,1.70
2019-01-18T21:45:40.348Z,2.03
2019-01-18T21:48:44.329Z,1.80
2019-01-18T21:51:55.311Z,2.20
2019-01-18T21:55:15.573Z,1.73
2019-01-18T21:58:51.035Z,1.90
2019-01-18T22:02:21.371Z,1.95
2019-01-18T22:05:55.853Z,1.82
2019-01-18T22:09:10.859Z,1.60
2019-01-18T22:12:39.300Z,3.33
2019-01-18T22:16:05.441Z,0.93
2019-01-18T22:19:17.814Z,2.27
2019-01-18T22:22:25.299Z,1.17
2019-01-18T22:25:43.318Z,1.50
2019-01-18T22:29:01.771Z,1.57
2019-01-18T22:32:28.845Z,1.87
2019-01-18T22:36:01.474Z,2.33
2019-01-18T22:39:25.955Z,1.95
2019-01-18T22:42:40.695Z,1.72
2019-01-18T22:45:39.773Z,1.93
2019-01-18T22:48:48.377Z,1.80
2019-01-18T22:51:58.005Z,1.25
2019-01-18T22:55:22.621Z,1.52
2019-01-18T22:58:22.371Z,1.67
2019-01-18T23:01:48.815Z,1.43
2019-01-18T23:04:55.958Z,1.82
2019-01-18T23:08:21.641Z,1.47
2019-01-18T23:11:34.057Z,2.07
2019-01-18T23:15:16.323Z,1.63
2019-01-18T23:18:21.518Z,1.04
2019-01-18T23:21:27.870Z,1.07
2019-01-18T23:24:25.138Z,1.37
2019-01-18T23:27:54.065Z,1.43
2019-01-18T23:30:59.042Z,2.37
2019-01-18T23:34:04.921Z,1.53
2019-01-18T23:37:15.304Z,1.63
2019-01-18T23:40:25.485Z,1.15
2019-01-18T23:43:21.326Z,2.02
2019-01-18T23:46:07.594Z,1.22
2019-01-18T23:49:29.367Z,1.37
2019-01-18T23:52:43.012Z,1.85
2019-01-18T23:56:20.311Z,1.50
2019-01-18T23:59:47.490Z,1.70
